sensor_id;sensor_type;location;lat;lon;timestamp;P1;durP1;ratioP1;P2;durP2;ratioP2
12658;SDS011;6394;52.488;13.386;2022-10-29T00:01:09;10.20;;;3.73;;
12658;SDS011;6394;52.488;13.386;2022-10-29T00:03:36;12.47;;;4.23;;
12658;SDS011;6394;52.488;13.386;2022-10-29T00:06:06;11.77;;;4.03;;
12658;SDS011;6394;52.488;13.386;2022-10-29T00:08:34;14.07;;;4.33;;
12658;SDS011;6394;52.488;13.386;2022-10-29T00:11:05;10.67;;;3.77;;
12658;SDS011;6394;52.488;13.386;2022-10-29T00:13:33;9.23;;;3.83;;
12658;SDS011;6394;52.488;13.386;2022-10-29T00:16:02;9.73;;;3.43;;
12658;SDS011;6394;52.488;13.386;2022-10-29T00:18:30;14.23;;;4.10;;
12658;SDS011;6394;52.488;13.386;2022-10-29T00:21:00;13.03;;;4.20;;
12658;SDS011;6394;52.488;13.386;2022-10-29T00:23:30;13.97;;;4.47;;
12658;SDS011;6394;52.488;13.386;2022-10-29T00:25:57;12.27;;;4.00;;
12658;SDS011;6394;52.488;13.386;2022-10-29T00:28:25;11.87;;;3.73;;
12658;SDS011;6394;52.488;13.386;2022-10-29T00:30:52;11.60;;;3.57;;
12658;SDS011;6394;52.488;13.386;2022-10-29T00:33:19;11.40;;;4.57;;
12658;SDS011;6394;52.488;13.386;2022-10-29T00:35:53;10.17;;;3.47;;
12658;SDS011;6394;52.488;13.386;2022-10-29T00:38:20;12.90;;;3.73;;
12658;SDS011;6394;52.488;13.386;2022-10-29T00:40:52;9.47;;;3.37;;
12658;SDS011;6394;52.488;13.386;2022-10-29T00:43:21;7.50;;;3.50;;
12658;SDS011;6394;52.488;13.386;2022-10-29T00:45:49;12.60;;;4.10;;
12658;SDS011;6394;52.488;13.386;2022-10-29T00:48:17;9.90;;;3.17;;
12658;SDS011;6394;52.488;13.386;2022-10-29T00:50:45;11.10;;;3.90;;
12658;SDS011;6394;52.488;13.386;2022-10-29T00:53:13;10.03;;;3.83;;
12658;SDS011;6394;52.488;13.386;2022-10-29T00:55:41;14.07;;;3.70;;
12658;SDS011;6394;52.488;13.386;2022-10-29T00:58:10;10.00;;;3.40;;
12658;SDS011;6394;52.488;13.386;2022-10-29T01:00:37;13.93;;;3.77;;
12658;SDS011;6394;52.488;13.386;2022-10-29T01:03:05;7.23;;;3.43;;
12658;SDS011;6394;52.488;13.386;2022-10-29T01:05:32;13.40;;;4.33;;
12658;SDS011;6394;52.488;13.386;2022-10-29T01:08:00;17.07;;;4.43;;
12658;SDS011;6394;52.488;13.386;2022-10-29T01:10:31;11.53;;;4.27;;
12658;SDS011;6394;52.488;13.386;2022-10-29T01:13:03;11.80;;;4.40;;
12658;SDS011;6394;52.488;13.386;2022-10-29T01:15:35;15.37;;;3.97;;
12658;SDS011;6394;52.488;13.386;2022-10-29T01:18:08;11.80;;;4.07;;
12658;SDS011;6394;52.488;13.386;2022-10-29T01:20:46;10.93;;;3.77;;
12658;SDS011;6394;52.488;13.386;2022-10-29T01:23:21;15.80;;;3.80;;
12658;SDS011;6394;52.488;13.386;2022-10-29T01:28:40;10.03;;;3.70;;
12658;SDS011;6394;52.488;13.386;2022-10-29T01:31:17;11.87;;;4.33;;
12658;SDS011;6394;52.488;13.386;2022-10-29T01:33:50;14.20;;;3.73;;
12658;SDS011;6394;52.488;13.386;2022-10-29T01:36:21;13.20;;;4.27;;
12658;SDS011;6394;52.488;13.386;2022-10-29T01:38:52;13.87;;;4.00;;
12658;SDS011;6394;52.488;13.386;2022-10-29T01:41:24;8.93;;;4.40;;
12658;SDS011;6394;52.488;13.386;2022-10-29T01:43:54;11.90;;;4.57;;
12658;SDS011;6394;52.488;13.386;2022-10-29T01:46:26;10.63;;;4.40;;
12658;SDS011;6394;52.488;13.386;2022-10-29T01:48:57;12.33;;;4.07;;
12658;SDS011;6394;52.488;13.386;2022-10-29T01:51:28;10.17;;;4.40;;
12658;SDS011;6394;52.488;13.386;2022-10-29T01:53:56;14.07;;;4.60;;
12658;SDS011;6394;52.488;13.386;2022-10-29T01:56:23;13.17;;;4.10;;
12658;SDS011;6394;52.488;13.386;2022-10-29T01:58:51;14.40;;;4.37;;
12658;SDS011;6394;52.488;13.386;2022-10-29T02:01:24;17.23;;;4.60;;
12658;SDS011;6394;52.488;13.386;2022-10-29T02:03:56;10.87;;;4.33;;
12658;SDS011;6394;52.488;13.386;2022-10-29T02:06:30;12.20;;;4.77;;
12658;SDS011;6394;52.488;13.386;2022-10-29T02:09:00;14.03;;;4.63;;
12658;SDS011;6394;52.488;13.386;2022-10-29T02:11:30;14.13;;;4.80;;
12658;SDS011;6394;52.488;13.386;2022-10-29T02:14:01;14.37;;;5.03;;
12658;SDS011;6394;52.488;13.386;2022-10-29T02:16:31;10.17;;;4.43;;
12658;SDS011;6394;52.488;13.386;2022-10-29T02:18:59;13.10;;;4.70;;
12658;SDS011;6394;52.488;13.386;2022-10-29T02:21:26;19.77;;;4.93;;
12658;SDS011;6394;52.488;13.386;2022-10-29T02:23:53;15.17;;;5.43;;
12658;SDS011;6394;52.488;13.386;2022-10-29T02:26:20;17.00;;;4.97;;
12658;SDS011;6394;52.488;13.386;2022-10-29T02:28:48;14.47;;;4.63;;
12658;SDS011;6394;52.488;13.386;2022-10-29T02:31:15;10.87;;;4.93;;
12658;SDS011;6394;52.488;13.386;2022-10-29T02:33:43;13.73;;;4.60;;
12658;SDS011;6394;52.488;13.386;2022-10-29T02:36:11;13.33;;;4.80;;
12658;SDS011;6394;52.488;13.386;2022-10-29T02:38:38;14.13;;;4.90;;
12658;SDS011;6394;52.488;13.386;2022-10-29T02:41:05;19.73;;;5.60;;
12658;SDS011;6394;52.488;13.386;2022-10-29T02:43:32;9.90;;;4.90;;
12658;SDS011;6394;52.488;13.386;2022-10-29T02:46:12;12.60;;;4.80;;
12658;SDS011;6394;52.488;13.386;2022-10-29T02:48:40;13.53;;;5.03;;
12658;SDS011;6394;52.488;13.386;2022-10-29T02:51:09;11.87;;;4.90;;
12658;SDS011;6394;52.488;13.386;2022-10-29T02:53:36;11.70;;;5.17;;
12658;SDS011;6394;52.488;13.386;2022-10-29T02:56:04;13.73;;;5.27;;
12658;SDS011;6394;52.488;13.386;2022-10-29T02:58:32;12.97;;;4.80;;
12658;SDS011;6394;52.488;13.386;2022-10-29T03:00:59;15.57;;;5.17;;
12658;SDS011;6394;52.488;13.386;2022-10-29T03:03:26;8.73;;;4.47;;
12658;SDS011;6394;52.488;13.386;2022-10-29T03:05:54;11.07;;;5.10;;
12658;SDS011;6394;52.488;13.386;2022-10-29T03:08:22;16.00;;;4.83;;
12658;SDS011;6394;52.488;13.386;2022-10-29T03:10:50;15.40;;;5.43;;
12658;SDS011;6394;52.488;13.386;2022-10-29T03:13:17;14.33;;;5.63;;
12658;SDS011;6394;52.488;13.386;2022-10-29T03:15:44;16.50;;;5.20;;
12658;SDS011;6394;52.488;13.386;2022-10-29T03:18:12;11.63;;;5.40;;
12658;SDS011;6394;52.488;13.386;2022-10-29T03:20:39;16.93;;;5.53;;
12658;SDS011;6394;52.488;13.386;2022-10-29T03:23:06;15.87;;;6.03;;
12658;SDS011;6394;52.488;13.386;2022-10-29T03:25:35;13.80;;;5.20;;
12658;SDS011;6394;52.488;13.386;2022-10-29T03:28:02;11.03;;;5.30;;
12658;SDS011;6394;52.488;13.386;2022-10-29T03:30:29;14.57;;;5.60;;
12658;SDS011;6394;52.488;13.386;2022-10-29T03:32:57;11.23;;;5.80;;
12658;SDS011;6394;52.488;13.386;2022-10-29T03:35:24;13.00;;;5.20;;
12658;SDS011;6394;52.488;13.386;2022-10-29T03:37:51;12.57;;;5.33;;
12658;SDS011;6394;52.488;13.386;2022-10-29T03:40:18;17.17;;;6.00;;
12658;SDS011;6394;52.488;13.386;2022-10-29T03:42:47;13.37;;;5.83;;
12658;SDS011;6394;52.488;13.386;2022-10-29T03:45:14;15.70;;;5.43;;
12658;SDS011;6394;52.488;13.386;2022-10-29T03:47:41;13.63;;;5.80;;
12658;SDS011;6394;52.488;13.386;2022-10-29T03:50:09;13.97;;;6.27;;
12658;SDS011;6394;52.488;13.386;2022-10-29T03:52:36;12.27;;;5.70;;
12658;SDS011;6394;52.488;13.386;2022-10-29T03:55:03;10.07;;;5.53;;
12658;SDS011;6394;52.488;13.386;2022-10-29T03:57:31;16.30;;;5.50;;
12658;SDS011;6394;52.488;13.386;2022-10-29T03:59:59;15.40;;;6.50;;
12658;SDS011;6394;52.488;13.386;2022-10-29T04:02:29;18.97;;;6.10;;
12658;SDS011;6394;52.488;13.386;2022-10-29T04:04:56;14.43;;;5.50;;
12658;SDS011;6394;52.488;13.386;2022-10-29T04:07:23;14.40;;;5.87;;
12658;SDS011;6394;52.488;13.386;2022-10-29T04:09:50;13.60;;;6.07;;
12658;SDS011;6394;52.488;13.386;2022-10-29T04:12:18;17.53;;;5.43;;
12658;SDS011;6394;52.488;13.386;2022-10-29T04:14:45;16.93;;;6.17;;
12658;SDS011;6394;52.488;13.386;2022-10-29T04:17:13;11.90;;;5.73;;
12658;SDS011;6394;52.488;13.386;2022-10-29T04:19:41;16.53;;;5.83;;
12658;SDS011;6394;52.488;13.386;2022-10-29T04:22:08;13.10;;;5.40;;
12658;SDS011;6394;52.488;13.386;2022-10-29T04:24:35;14.57;;;5.90;;
12658;SDS011;6394;52.488;13.386;2022-10-29T04:27:03;10.93;;;5.60;;
12658;SDS011;6394;52.488;13.386;2022-10-29T04:29:30;14.17;;;6.00;;
12658;SDS011;6394;52.488;13.386;2022-10-29T04:31:57;14.87;;;5.57;;
12658;SDS011;6394;52.488;13.386;2022-10-29T04:34:26;11.67;;;5.17;;
12658;SDS011;6394;52.488;13.386;2022-10-29T04:36:53;13.23;;;6.10;;
12658;SDS011;6394;52.488;13.386;2022-10-29T04:39:20;14.03;;;5.70;;
12658;SDS011;6394;52.488;13.386;2022-10-29T04:41:47;14.20;;;5.83;;
12658;SDS011;6394;52.488;13.386;2022-10-29T04:44:14;13.53;;;5.47;;
12658;SDS011;6394;52.488;13.386;2022-10-29T04:46:42;16.93;;;6.10;;
12658;SDS011;6394;52.488;13.386;2022-10-29T04:49:09;15.73;;;6.00;;
12658;SDS011;6394;52.488;13.386;2022-10-29T04:51:37;14.30;;;6.93;;
12658;SDS011;6394;52.488;13.386;2022-10-29T04:54:05;16.17;;;6.50;;
12658;SDS011;6394;52.488;13.386;2022-10-29T04:56:32;14.67;;;6.33;;
12658;SDS011;6394;52.488;13.386;2022-10-29T04:58:59;12.30;;;6.40;;
12658;SDS011;6394;52.488;13.386;2022-10-29T05:01:26;16.50;;;6.30;;
12658;SDS011;6394;52.488;13.386;2022-10-29T05:03:53;21.20;;;5.80;;
12658;SDS011;6394;52.488;13.386;2022-10-29T05:06:20;13.37;;;5.60;;
12658;SDS011;6394;52.488;13.386;2022-10-29T05:08:49;17.37;;;6.50;;
12658;SDS011;6394;52.488;13.386;2022-10-29T05:11:16;18.60;;;6.13;;
12658;SDS011;6394;52.488;13.386;2022-10-29T05:13:43;14.87;;;6.20;;
12658;SDS011;6394;52.488;13.386;2022-10-29T05:16:11;15.43;;;5.70;;
12658;SDS011;6394;52.488;13.386;2022-10-29T05:18:38;13.07;;;6.00;;
12658;SDS011;6394;52.488;13.386;2022-10-29T05:21:05;18.17;;;6.17;;
12658;SDS011;6394;52.488;13.386;2022-10-29T05:23:32;14.53;;;6.20;;
12658;SDS011;6394;52.488;13.386;2022-10-29T05:26:01;16.80;;;6.97;;
12658;SDS011;6394;52.488;13.386;2022-10-29T05:28:28;13.37;;;6.27;;
12658;SDS011;6394;52.488;13.386;2022-10-29T05:30:58;15.57;;;7.40;;
12658;SDS011;6394;52.488;13.386;2022-10-29T05:33:25;15.60;;;6.20;;
12658;SDS011;6394;52.488;13.386;2022-10-29T05:35:53;16.13;;;6.77;;
12658;SDS011;6394;52.488;13.386;2022-10-29T05:38:20;13.30;;;6.07;;
12658;SDS011;6394;52.488;13.386;2022-10-29T05:40:47;14.80;;;6.40;;
12658;SDS011;6394;52.488;13.386;2022-10-29T05:43:16;11.77;;;5.57;;
12658;SDS011;6394;52.488;13.386;2022-10-29T05:45:44;16.10;;;6.97;;
12658;SDS011;6394;52.488;13.386;2022-10-29T05:48:11;10.57;;;6.50;;
12658;SDS011;6394;52.488;13.386;2022-10-29T05:50:38;16.63;;;6.43;;
12658;SDS011;6394;52.488;13.386;2022-10-29T05:53:06;19.43;;;6.53;;
12658;SDS011;6394;52.488;13.386;2022-10-29T05:55:35;10.03;;;6.10;;
12658;SDS011;6394;52.488;13.386;2022-10-29T05:58:03;11.13;;;6.37;;
12658;SDS011;6394;52.488;13.386;2022-10-29T06:00:33;15.00;;;6.23;;
12658;SDS011;6394;52.488;13.386;2022-10-29T06:03:00;15.53;;;6.70;;
12658;SDS011;6394;52.488;13.386;2022-10-29T06:05:27;15.17;;;6.30;;
12658;SDS011;6394;52.488;13.386;2022-10-29T06:07:55;20.73;;;6.40;;
12658;SDS011;6394;52.488;13.386;2022-10-29T06:10:22;10.87;;;5.87;;
12658;SDS011;6394;52.488;13.386;2022-10-29T06:12:50;15.50;;;6.10;;
12658;SDS011;6394;52.488;13.386;2022-10-29T06:15:17;12.00;;;6.27;;
12658;SDS011;6394;52.488;13.386;2022-10-29T06:17:46;12.70;;;6.50;;
12658;SDS011;6394;52.488;13.386;2022-10-29T06:20:14;15.33;;;6.97;;
12658;SDS011;6394;52.488;13.386;2022-10-29T06:22:42;14.37;;;6.80;;
12658;SDS011;6394;52.488;13.386;2022-10-29T06:25:17;13.53;;;6.47;;
12658;SDS011;6394;52.488;13.386;2022-10-29T06:27:44;13.60;;;6.27;;
12658;SDS011;6394;52.488;13.386;2022-10-29T06:30:12;15.10;;;7.17;;
12658;SDS011;6394;52.488;13.386;2022-10-29T06:32:39;15.67;;;6.87;;
12658;SDS011;6394;52.488;13.386;2022-10-29T06:35:08;16.43;;;7.13;;
12658;SDS011;6394;52.488;13.386;2022-10-29T06:37:38;16.87;;;6.40;;
12658;SDS011;6394;52.488;13.386;2022-10-29T06:40:05;15.40;;;7.03;;
12658;SDS011;6394;52.488;13.386;2022-10-29T06:42:33;14.47;;;7.00;;
12658;SDS011;6394;52.488;13.386;2022-10-29T06:45:00;14.37;;;6.07;;
12658;SDS011;6394;52.488;13.386;2022-10-29T06:47:27;15.37;;;6.70;;
12658;SDS011;6394;52.488;13.386;2022-10-29T06:49:54;13.30;;;6.47;;
12658;SDS011;6394;52.488;13.386;2022-10-29T06:52:23;20.73;;;7.33;;
12658;SDS011;6394;52.488;13.386;2022-10-29T06:54:51;12.93;;;6.30;;
12658;SDS011;6394;52.488;13.386;2022-10-29T06:57:18;18.53;;;6.37;;
12658;SDS011;6394;52.488;13.386;2022-10-29T06:59:47;10.33;;;6.60;;
12658;SDS011;6394;52.488;13.386;2022-10-29T07:02:14;14.00;;;6.83;;
12658;SDS011;6394;52.488;13.386;2022-10-29T07:04:42;17.47;;;7.10;;
12658;SDS011;6394;52.488;13.386;2022-10-29T07:07:10;19.50;;;8.17;;
12658;SDS011;6394;52.488;13.386;2022-10-29T07:09:39;14.77;;;6.87;;
12658;SDS011;6394;52.488;13.386;2022-10-29T07:12:07;12.80;;;6.80;;
12658;SDS011;6394;52.488;13.386;2022-10-29T07:14:36;10.70;;;6.37;;
12658;SDS011;6394;52.488;13.386;2022-10-29T07:17:04;16.07;;;6.70;;
12658;SDS011;6394;52.488;13.386;2022-10-29T07:19:31;12.40;;;6.37;;
12658;SDS011;6394;52.488;13.386;2022-10-29T07:22:01;13.90;;;6.30;;
12658;SDS011;6394;52.488;13.386;2022-10-29T07:24:28;14.97;;;6.87;;
12658;SDS011;6394;52.488;13.386;2022-10-29T07:26:57;14.03;;;7.17;;
12658;SDS011;6394;52.488;13.386;2022-10-29T07:29:27;14.97;;;6.37;;
12658;SDS011;6394;52.488;13.386;2022-10-29T07:31:55;13.60;;;6.13;;
12658;SDS011;6394;52.488;13.386;2022-10-29T07:34:22;12.67;;;6.33;;
12658;SDS011;6394;52.488;13.386;2022-10-29T07:36:50;12.60;;;6.67;;
12658;SDS011;6394;52.488;13.386;2022-10-29T07:39:17;15.67;;;6.43;;
12658;SDS011;6394;52.488;13.386;2022-10-29T07:41:44;12.87;;;6.47;;
12658;SDS011;6394;52.488;13.386;2022-10-29T07:44:13;12.23;;;6.20;;
12658;SDS011;6394;52.488;13.386;2022-10-29T07:46:40;12.50;;;6.53;;
12658;SDS011;6394;52.488;13.386;2022-10-29T07:49:07;18.63;;;6.83;;
12658;SDS011;6394;52.488;13.386;2022-10-29T07:51:34;11.83;;;6.40;;
12658;SDS011;6394;52.488;13.386;2022-10-29T07:54:02;13.17;;;6.03;;
12658;SDS011;6394;52.488;13.386;2022-10-29T07:56:29;14.50;;;6.67;;
12658;SDS011;6394;52.488;13.386;2022-10-29T07:58:56;11.40;;;5.83;;
12658;SDS011;6394;52.488;13.386;2022-10-29T08:01:26;13.87;;;5.87;;
12658;SDS011;6394;52.488;13.386;2022-10-29T08:03:54;20.43;;;6.37;;
12658;SDS011;6394;52.488;13.386;2022-10-29T08:06:21;11.33;;;5.87;;
12658;SDS011;6394;52.488;13.386;2022-10-29T08:08:48;13.90;;;5.40;;
12658;SDS011;6394;52.488;13.386;2022-10-29T08:11:15;11.10;;;6.13;;
12658;SDS011;6394;52.488;13.386;2022-10-29T08:13:43;13.83;;;6.13;;
12658;SDS011;6394;52.488;13.386;2022-10-29T08:16:10;14.63;;;6.13;;
12658;SDS011;6394;52.488;13.386;2022-10-29T08:18:41;15.13;;;5.97;;
12658;SDS011;6394;52.488;13.386;2022-10-29T08:21:08;12.50;;;6.03;;
12658;SDS011;6394;52.488;13.386;2022-10-29T08:23:35;13.73;;;6.70;;
12658;SDS011;6394;52.488;13.386;2022-10-29T08:26:05;13.77;;;5.73;;
12658;SDS011;6394;52.488;13.386;2022-10-29T08:28:32;10.17;;;5.97;;
12658;SDS011;6394;52.488;13.386;2022-10-29T08:30:59;11.57;;;6.07;;
12658;SDS011;6394;52.488;13.386;2022-10-29T08:33:26;17.47;;;5.83;;
12658;SDS011;6394;52.488;13.386;2022-10-29T08:35:55;15.40;;;6.13;;
12658;SDS011;6394;52.488;13.386;2022-10-29T08:38:22;12.90;;;6.33;;
12658;SDS011;6394;52.488;13.386;2022-10-29T08:40:54;12.20;;;6.23;;
12658;SDS011;6394;52.488;13.386;2022-10-29T08:43:31;12.33;;;6.33;;
12658;SDS011;6394;52.488;13.386;2022-10-29T08:46:00;14.67;;;6.33;;
12658;SDS011;6394;52.488;13.386;2022-10-29T08:48:31;12.67;;;6.10;;
12658;SDS011;6394;52.488;13.386;2022-10-29T08:51:04;12.57;;;5.97;;
12658;SDS011;6394;52.488;13.386;2022-10-29T08:53:33;13.03;;;5.70;;
12658;SDS011;6394;52.488;13.386;2022-10-29T08:56:03;12.83;;;6.30;;
12658;SDS011;6394;52.488;13.386;2022-10-29T08:58:32;10.70;;;5.70;;
12658;SDS011;6394;52.488;13.386;2022-10-29T09:01:01;13.70;;;6.97;;
12658;SDS011;6394;52.488;13.386;2022-10-29T09:03:28;18.63;;;8.90;;
12658;SDS011;6394;52.488;13.386;2022-10-29T09:06:01;17.87;;;7.17;;
12658;SDS011;6394;52.488;13.386;2022-10-29T09:08:35;12.10;;;7.10;;
12658;SDS011;6394;52.488;13.386;2022-10-29T09:11:09;15.60;;;6.73;;
12658;SDS011;6394;52.488;13.386;2022-10-29T09:13:42;15.37;;;7.23;;
12658;SDS011;6394;52.488;13.386;2022-10-29T09:16:21;14.30;;;6.37;;
12658;SDS011;6394;52.488;13.386;2022-10-29T09:21:37;16.60;;;9.10;;
12658;SDS011;6394;52.488;13.386;2022-10-29T09:24:10;13.23;;;6.00;;
12658;SDS011;6394;52.488;13.386;2022-10-29T09:26:42;12.33;;;6.10;;
12658;SDS011;6394;52.488;13.386;2022-10-29T09:29:18;10.97;;;5.87;;
12658;SDS011;6394;52.488;13.386;2022-10-29T09:31:49;14.63;;;6.33;;
12658;SDS011;6394;52.488;13.386;2022-10-29T09:34:22;15.93;;;5.73;;
12658;SDS011;6394;52.488;13.386;2022-10-29T09:36:51;14.20;;;5.53;;
12658;SDS011;6394;52.488;13.386;2022-10-29T09:39:22;10.77;;;5.63;;
12658;SDS011;6394;52.488;13.386;2022-10-29T09:41:52;13.60;;;5.57;;
12658;SDS011;6394;52.488;13.386;2022-10-29T09:44:20;15.17;;;5.40;;
12658;SDS011;6394;52.488;13.386;2022-10-29T09:46:51;15.30;;;5.17;;
12658;SDS011;6394;52.488;13.386;2022-10-29T09:49:24;14.50;;;5.30;;
12658;SDS011;6394;52.488;13.386;2022-10-29T09:51:55;13.30;;;4.97;;
12658;SDS011;6394;52.488;13.386;2022-10-29T09:54:25;7.57;;;4.77;;
12658;SDS011;6394;52.488;13.386;2022-10-29T09:56:53;15.30;;;5.10;;
12658;SDS011;6394;52.488;13.386;2022-10-29T09:59:23;13.70;;;4.90;;
12658;SDS011;6394;52.488;13.386;2022-10-29T10:01:51;10.13;;;4.67;;
12658;SDS011;6394;52.488;13.386;2022-10-29T10:04:20;10.30;;;4.93;;
12658;SDS011;6394;52.488;13.386;2022-10-29T10:07:02;11.77;;;5.10;;
12658;SDS011;6394;52.488;13.386;2022-10-29T10:09:38;11.33;;;4.80;;
12658;SDS011;6394;52.488;13.386;2022-10-29T10:12:15;12.73;;;5.20;;
12658;SDS011;6394;52.488;13.386;2022-10-29T10:14:43;11.50;;;5.20;;
12658;SDS011;6394;52.488;13.386;2022-10-29T10:17:10;18.53;;;5.03;;
12658;SDS011;6394;52.488;13.386;2022-10-29T10:19:41;14.43;;;5.30;;
12658;SDS011;6394;52.488;13.386;2022-10-29T10:22:16;15.53;;;5.03;;
12658;SDS011;6394;52.488;13.386;2022-10-29T10:24:44;13.50;;;4.87;;
12658;SDS011;6394;52.488;13.386;2022-10-29T10:27:23;9.97;;;4.60;;
12658;SDS011;6394;52.488;13.386;2022-10-29T10:30:06;9.97;;;4.80;;
12658;SDS011;6394;52.488;13.386;2022-10-29T10:32:36;17.17;;;5.30;;
12658;SDS011;6394;52.488;13.386;2022-10-29T10:35:04;9.23;;;5.03;;
12658;SDS011;6394;52.488;13.386;2022-10-29T10:37:47;13.10;;;5.87;;
12658;SDS011;6394;52.488;13.386;2022-10-29T10:40:18;16.50;;;5.63;;
12658;SDS011;6394;52.488;13.386;2022-10-29T10:42:46;11.80;;;5.60;;
12658;SDS011;6394;52.488;13.386;2022-10-29T10:45:14;12.33;;;5.27;;
12658;SDS011;6394;52.488;13.386;2022-10-29T10:47:43;9.60;;;5.13;;
12658;SDS011;6394;52.488;13.386;2022-10-29T10:50:14;11.83;;;4.77;;
12658;SDS011;6394;52.488;13.386;2022-10-29T10:52:44;11.27;;;4.50;;
12658;SDS011;6394;52.488;13.386;2022-10-29T10:55:15;12.23;;;5.70;;
12658;SDS011;6394;52.488;13.386;2022-10-29T10:57:50;12.63;;;5.30;;
12658;SDS011;6394;52.488;13.386;2022-10-29T11:00:21;9.53;;;4.73;;
12658;SDS011;6394;52.488;13.386;2022-10-29T11:02:49;11.93;;;4.67;;
12658;SDS011;6394;52.488;13.386;2022-10-29T11:05:18;12.00;;;4.93;;
12658;SDS011;6394;52.488;13.386;2022-10-29T11:07:47;11.83;;;5.03;;
12658;SDS011;6394;52.488;13.386;2022-10-29T11:10:17;12.90;;;4.67;;
12658;SDS011;6394;52.488;13.386;2022-10-29T11:12:45;10.40;;;4.80;;
12658;SDS011;6394;52.488;13.386;2022-10-29T11:15:17;10.53;;;4.30;;
12658;SDS011;6394;52.488;13.386;2022-10-29T11:17:46;15.50;;;5.40;;
12658;SDS011;6394;52.488;13.386;2022-10-29T11:20:16;12.10;;;4.97;;
12658;SDS011;6394;52.488;13.386;2022-10-29T11:22:47;11.23;;;4.60;;
12658;SDS011;6394;52.488;13.386;2022-10-29T11:25:16;14.73;;;4.93;;
12658;SDS011;6394;52.488;13.386;2022-10-29T11:27:46;14.73;;;4.67;;
12658;SDS011;6394;52.488;13.386;2022-10-29T11:30:17;12.67;;;4.77;;
12658;SDS011;6394;52.488;13.386;2022-10-29T11:32:50;13.67;;;4.83;;
12658;SDS011;6394;52.488;13.386;2022-10-29T11:35:21;13.07;;;5.17;;
12658;SDS011;6394;52.488;13.386;2022-10-29T11:37:52;13.07;;;4.57;;
12658;SDS011;6394;52.488;13.386;2022-10-29T11:40:22;10.27;;;4.77;;
12658;SDS011;6394;52.488;13.386;2022-10-29T11:42:49;14.07;;;5.07;;
12658;SDS011;6394;52.488;13.386;2022-10-29T11:45:19;10.93;;;4.90;;
12658;SDS011;6394;52.488;13.386;2022-10-29T11:47:56;12.07;;;5.40;;
12658;SDS011;6394;52.488;13.386;2022-10-29T11:50:29;13.93;;;5.20;;
12658;SDS011;6394;52.488;13.386;2022-10-29T11:53:01;14.03;;;4.70;;
12658;SDS011;6394;52.488;13.386;2022-10-29T11:55:32;11.77;;;4.80;;
12658;SDS011;6394;52.488;13.386;2022-10-29T11:58:02;12.37;;;5.07;;
12658;SDS011;6394;52.488;13.386;2022-10-29T12:00:40;10.13;;;4.60;;
12658;SDS011;6394;52.488;13.386;2022-10-29T12:03:17;15.07;;;4.73;;
12658;SDS011;6394;52.488;13.386;2022-10-29T12:05:49;10.17;;;3.73;;
12658;SDS011;6394;52.488;13.386;2022-10-29T12:08:22;10.07;;;4.30;;
12658;SDS011;6394;52.488;13.386;2022-10-29T12:10:53;9.80;;;4.53;;
12658;SDS011;6394;52.488;13.386;2022-10-29T12:13:29;11.23;;;4.60;;
12658;SDS011;6394;52.488;13.386;2022-10-29T12:16:04;11.13;;;4.57;;
12658;SDS011;6394;52.488;13.386;2022-10-29T12:18:34;11.63;;;5.07;;
12658;SDS011;6394;52.488;13.386;2022-10-29T12:21:08;10.90;;;4.93;;
12658;SDS011;6394;52.488;13.386;2022-10-29T12:23:40;9.20;;;4.63;;
12658;SDS011;6394;52.488;13.386;2022-10-29T12:26:13;13.63;;;4.70;;
12658;SDS011;6394;52.488;13.386;2022-10-29T12:28:44;13.90;;;5.10;;
12658;SDS011;6394;52.488;13.386;2022-10-29T12:31:18;11.03;;;4.83;;
12658;SDS011;6394;52.488;13.386;2022-10-29T12:33:49;11.37;;;4.23;;
12658;SDS011;6394;52.488;13.386;2022-10-29T12:36:22;10.90;;;4.73;;
12658;SDS011;6394;52.488;13.386;2022-10-29T12:38:51;13.13;;;5.13;;
12658;SDS011;6394;52.488;13.386;2022-10-29T12:41:22;19.67;;;5.37;;
12658;SDS011;6394;52.488;13.386;2022-10-29T12:43:49;15.90;;;5.50;;
12658;SDS011;6394;52.488;13.386;2022-10-29T12:46:21;10.13;;;5.10;;
12658;SDS011;6394;52.488;13.386;2022-10-29T12:48:52;8.90;;;4.40;;
12658;SDS011;6394;52.488;13.386;2022-10-29T12:51:26;11.77;;;5.13;;
12658;SDS011;6394;52.488;13.386;2022-10-29T12:54:00;13.03;;;4.73;;
12658;SDS011;6394;52.488;13.386;2022-10-29T12:56:31;10.57;;;5.00;;
12658;SDS011;6394;52.488;13.386;2022-10-29T12:59:20;10.77;;;4.53;;
12658;SDS011;6394;52.488;13.386;2022-10-29T13:01:51;11.20;;;4.70;;
12658;SDS011;6394;52.488;13.386;2022-10-29T13:04:22;13.07;;;4.97;;
12658;SDS011;6394;52.488;13.386;2022-10-29T13:06:57;14.10;;;4.80;;
12658;SDS011;6394;52.488;13.386;2022-10-29T13:09:25;10.43;;;4.60;;
12658;SDS011;6394;52.488;13.386;2022-10-29T13:11:53;12.17;;;5.13;;
12658;SDS011;6394;52.488;13.386;2022-10-29T13:14:22;11.60;;;4.60;;
12658;SDS011;6394;52.488;13.386;2022-10-29T13:16:52;12.37;;;4.43;;
12658;SDS011;6394;52.488;13.386;2022-10-29T13:19:22;9.17;;;4.53;;
12658;SDS011;6394;52.488;13.386;2022-10-29T13:21:58;14.20;;;4.17;;
12658;SDS011;6394;52.488;13.386;2022-10-29T13:24:26;17.30;;;4.80;;
12658;SDS011;6394;52.488;13.386;2022-10-29T13:26:54;11.33;;;4.70;;
12658;SDS011;6394;52.488;13.386;2022-10-29T13:32:05;11.80;;;4.43;;
12658;SDS011;6394;52.488;13.386;2022-10-29T13:34:48;10.10;;;4.50;;
12658;SDS011;6394;52.488;13.386;2022-10-29T13:37:35;15.53;;;5.43;;
12658;SDS011;6394;52.488;13.386;2022-10-29T13:42:51;11.97;;;5.07;;
12658;SDS011;6394;52.488;13.386;2022-10-29T13:45:21;12.50;;;5.10;;
12658;SDS011;6394;52.488;13.386;2022-10-29T13:47:50;15.43;;;5.30;;
12658;SDS011;6394;52.488;13.386;2022-10-29T13:50:19;10.80;;;5.17;;
12658;SDS011;6394;52.488;13.386;2022-10-29T13:52:48;10.80;;;5.20;;
12658;SDS011;6394;52.488;13.386;2022-10-29T13:55:16;12.37;;;5.87;;
12658;SDS011;6394;52.488;13.386;2022-10-29T13:57:47;13.30;;;5.20;;
12658;SDS011;6394;52.488;13.386;2022-10-29T14:00:18;12.33;;;5.20;;
12658;SDS011;6394;52.488;13.386;2022-10-29T14:02:48;9.93;;;4.60;;
12658;SDS011;6394;52.488;13.386;2022-10-29T14:05:18;19.07;;;5.80;;
12658;SDS011;6394;52.488;13.386;2022-10-29T14:07:48;13.80;;;5.40;;
12658;SDS011;6394;52.488;13.386;2022-10-29T14:10:17;9.93;;;4.80;;
12658;SDS011;6394;52.488;13.386;2022-10-29T14:12:46;12.37;;;5.10;;
12658;SDS011;6394;52.488;13.386;2022-10-29T14:15:14;14.00;;;5.37;;
12658;SDS011;6394;52.488;13.386;2022-10-29T14:17:42;11.97;;;5.37;;
12658;SDS011;6394;52.488;13.386;2022-10-29T14:20:25;13.20;;;5.20;;
12658;SDS011;6394;52.488;13.386;2022-10-29T14:22:53;12.87;;;5.63;;
12658;SDS011;6394;52.488;13.386;2022-10-29T14:25:28;12.87;;;5.60;;
12658;SDS011;6394;52.488;13.386;2022-10-29T14:28:08;11.13;;;5.40;;
12658;SDS011;6394;52.488;13.386;2022-10-29T14:30:36;17.20;;;6.23;;
12658;SDS011;6394;52.488;13.386;2022-10-29T14:33:15;11.73;;;6.13;;
12658;SDS011;6394;52.488;13.386;2022-10-29T14:35:44;12.27;;;5.77;;
12658;SDS011;6394;52.488;13.386;2022-10-29T14:38:11;15.87;;;6.30;;
12658;SDS011;6394;52.488;13.386;2022-10-29T14:40:40;11.87;;;5.53;;
12658;SDS011;6394;52.488;13.386;2022-10-29T14:43:11;13.87;;;5.90;;
12658;SDS011;6394;52.488;13.386;2022-10-29T14:45:44;16.60;;;5.67;;
12658;SDS011;6394;52.488;13.386;2022-10-29T14:48:11;12.13;;;6.13;;
12658;SDS011;6394;52.488;13.386;2022-10-29T14:50:44;14.20;;;5.93;;
12658;SDS011;6394;52.488;13.386;2022-10-29T14:53:22;12.47;;;6.03;;
12658;SDS011;6394;52.488;13.386;2022-10-29T14:55:51;13.43;;;6.47;;
12658;SDS011;6394;52.488;13.386;2022-10-29T14:58:19;12.37;;;6.03;;
12658;SDS011;6394;52.488;13.386;2022-10-29T15:00:49;19.37;;;6.43;;